createdAt,value
2023-03-23T16:02:23.522Z,12.82
2023-03-23T16:07:25.065Z,13.70
2023-03-23T16:12:23.951Z,13.52
2023-03-23T16:17:24.274Z,13.70
2023-03-23T16:22:23.100Z,14.88
2023-03-23T16:27:23.741Z,14.25
2023-03-23T16:32:24.428Z,18.45
2023-03-23T16:37:25.952Z,19.15
2023-03-23T16:42:24.855Z,20.40
2023-03-23T16:47:25.676Z,21.67
2023-03-23T16:52:24.545Z,23.23
2023-03-23T16:57:23.494Z,27.38
2023-03-23T17:02:22.205Z,21.85
2023-03-23T17:07:22.377Z,27.02
2023-03-23T17:12:22.280Z,23.40
2023-03-23T17:17:22.406Z,22.27
2023-03-23T17:22:22.754Z,23.55
2023-03-23T17:27:23.051Z,28.10
2023-03-23T17:32:29.690Z,31.33
2023-03-23T17:37:29.901Z,34.05
2023-03-23T17:42:29.097Z,33.40
2023-03-23T17:47:28.126Z,30.67
2023-03-23T17:52:27.542Z,27.15
2023-03-23T17:57:30.691Z,18.83
2023-03-23T18:02:29.550Z,27.15
2023-03-23T18:07:29.180Z,27.17
2023-03-23T18:12:30.422Z,28.83
2023-03-23T18:17:29.286Z,31.75
2023-03-23T18:22:28.075Z,30.95
2023-03-23T18:27:27.254Z,28.63
2023-03-23T18:32:29.658Z,28.13
2023-03-23T18:37:28.610Z,28.50
2023-03-23T18:42:28.052Z,27.10
2023-03-23T18:47:35.629Z,27.83
2023-03-23T18:52:34.512Z,28.40
2023-03-23T18:57:33.259Z,27.83
2023-03-23T19:02:33.640Z,27.08
2023-03-23T19:07:32.794Z,26.58
2023-03-23T19:12:32.155Z,28.13
2023-03-23T19:17:30.975Z,24.33
2023-03-23T19:22:31.417Z,26.98
2023-03-23T19:27:31.367Z,22.70
2023-03-23T19:32:30.513Z,21.90
2023-03-23T19:37:34.511Z,20.85
2023-03-23T19:42:35.547Z,22.02
2023-03-23T19:47:34.736Z,20.05
2023-03-23T19:52:33.502Z,15.18
2023-03-23T19:57:32.666Z,15.98
2023-03-23T20:02:35.399Z,15.27
2023-03-23T20:07:35.073Z,15.48
2023-03-23T20:12:33.988Z,16.90
2023-03-23T20:17:34.424Z,17.58
2023-03-23T20:22:33.269Z,17.02
2023-03-23T20:27:32.415Z,18.73
2023-03-23T20:32:40.825Z,18.20
2023-03-23T20:37:41.195Z,19.90
2023-03-23T20:42:44.000Z,17.88
2023-03-23T20:52:42.772Z,17.38
2023-03-23T20:57:42.267Z,16.98
2023-03-23T21:02:42.333Z,15.00
2023-03-23T21:07:42.953Z,16.10
2023-03-23T21:12:41.682Z,17.45
2023-03-23T21:17:40.692Z,17.65
2023-03-23T21:22:39.653Z,17.00
2023-03-23T21:27:39.876Z,15.50
2023-03-23T21:32:38.641Z,15.57
2023-03-23T21:37:37.889Z,16.45
2023-03-23T21:42:36.571Z,17.30
2023-03-23T21:47:37.872Z,16.20
2023-03-23T21:52:37.228Z,15.32
2023-03-23T21:57:37.072Z,15.57
2023-03-23T22:02:46.759Z,17.83
2023-03-23T22:07:46.666Z,13.52
2023-03-23T22:12:45.786Z,13.18
2023-03-23T22:17:46.324Z,13.45
2023-03-23T22:22:45.278Z,13.80
2023-03-23T22:27:44.990Z,15.55
2023-03-23T22:32:45.378Z,13.43
2023-03-23T22:37:44.344Z,12.80
2023-03-23T22:42:43.284Z,13.80
2023-03-23T22:47:42.198Z,14.75
2023-03-23T22:52:42.552Z,12.93
2023-03-23T22:57:41.529Z,11.20
2023-03-23T23:02:40.594Z,13.25
2023-03-23T23:07:40.254Z,12.70
2023-03-23T23:12:42.544Z,11.75
2023-03-23T23:17:41.643Z,11.30
2023-03-23T23:22:43.677Z,10.65
2023-03-23T23:27:44.737Z,11.23
2023-03-23T23:32:44.824Z,10.88
2023-03-23T23:37:43.744Z,9.95
2023-03-23T23:42:46.425Z,10.63
2023-03-23T23:47:45.832Z,12.57
2023-03-23T23:52:45.291Z,11.32
2023-03-23T23:57:46.542Z,11.95
